createdAt,value
2018-04-26T00:00:02.826Z,1011.32
2018-04-26T00:05:03.090Z,1011.41
2018-04-26T00:10:02.718Z,1011.38
2018-04-26T00:15:03.438Z,1011.38
2018-04-26T00:20:03.267Z,1011.39
2018-04-26T00:25:02.884Z,1011.33
2018-04-26T00:30:03.457Z,1011.39
2018-04-26T00:35:03.046Z,1011.33
2018-04-26T00:40:03.609Z,1011.31
2018-04-26T00:45:03.207Z,1011.32
2018-04-26T00:50:02.761Z,1011.27
2018-04-26T00:55:03.346Z,1011.29
2018-04-26T01:00:02.913Z,1011.25
2018-04-26T01:05:03.455Z,1011.2
2018-04-26T01:10:03.021Z,1011.22
2018-04-26T01:15:03.612Z,1011.24
2018-04-26T01:20:03.516Z,1011.14
2018-04-26T01:25:03.139Z,1011.17
2018-04-26T01:30:02.818Z,1011.17
2018-04-26T01:35:03.578Z,1011.2
2018-04-26T01:40:03.142Z,1011.07
2018-04-26T01:45:02.714Z,1011.17
2018-04-26T01:50:03.454Z,1011.16
2018-04-26T01:55:02.991Z,1011.27
2018-04-26T02:00:03.568Z,1011.14
2018-04-26T02:05:03.190Z,1011.23
2018-04-26T02:10:02.804Z,1011.36
2018-04-26T02:15:03.413Z,1011.31
2018-04-26T02:20:02.983Z,1011.21
2018-04-26T02:25:03.536Z,1011.11
2018-04-26T02:30:03.073Z,1011.15
2018-04-26T02:35:02.776Z,1011.12
2018-04-26T02:40:03.424Z,1011.17
2018-04-26T02:45:03.048Z,1011.27
2018-04-26T02:50:03.792Z,1011.17
2018-04-26T02:55:03.353Z,1011.33
2018-04-26T03:00:03.259Z,1011.37
2018-04-26T03:05:02.848Z,1011.42
2018-04-26T03:10:03.676Z,1011.45
2018-04-26T03:15:03.274Z,1011.38
2018-04-26T03:20:02.854Z,1011.39
2018-04-26T03:25:03.474Z,1011.45
2018-04-26T03:30:02.993Z,1011.53
2018-04-26T03:35:03.565Z,1011.43
2018-04-26T03:40:03.163Z,1011.5
2018-04-26T03:45:03.705Z,1011.49
2018-04-26T03:50:03.263Z,1011.45
2018-04-26T03:55:02.813Z,1011.45
2018-04-26T04:00:03.316Z,1011.5
2018-04-26T04:05:02.861Z,1011.53
2018-04-26T04:10:03.544Z,1011.53
2018-04-26T04:15:03.135Z,1011.51
2018-04-26T04:20:03.732Z,1011.61
2018-04-26T04:25:03.291Z,1011.71
2018-04-26T04:30:03.476Z,1011.63
2018-04-26T04:35:02.936Z,1011.72
2018-04-26T04:40:03.520Z,1011.81
2018-04-26T04:45:03.099Z,1011.78
2018-04-26T04:50:03.604Z,1011.94
2018-04-26T04:55:03.129Z,1011.94
2018-04-26T05:00:03.676Z,1011.91
2018-04-26T05:05:03.171Z,1012.13
2018-04-26T05:10:02.718Z,1012.33
2018-04-26T05:15:03.213Z,1012.26
2018-04-26T05:20:02.733Z,1012.44
2018-04-26T05:25:03.284Z,1012.54
2018-04-26T05:30:03.025Z,1012.5
2018-04-26T05:35:02.752Z,1012.68
2018-04-26T05:40:03.298Z,1012.71
2018-04-26T05:45:02.879Z,1012.74
2018-04-26T05:50:03.399Z,1012.87
2018-04-26T05:55:02.932Z,1012.92
2018-04-26T06:00:03.507Z,1012.95
2018-04-26T06:05:02.940Z,1012.92
2018-04-26T06:10:03.542Z,1013.15
2018-04-26T06:15:02.954Z,1013.05
2018-04-26T06:20:03.479Z,1013.05
2018-04-26T06:25:03.234Z,1013.14
2018-04-26T06:30:02.889Z,1013.22
2018-04-26T06:35:03.442Z,1013.31
2018-04-26T06:40:02.970Z,1013.28
2018-04-26T06:45:03.553Z,1013.27
2018-04-26T06:50:03.077Z,1013.36
2018-04-26T06:55:03.647Z,1013.4
2018-04-26T07:00:03.207Z,1013.58
2018-04-26T07:05:02.781Z,1013.49
2018-04-26T07:10:03.421Z,1013.56
2018-04-26T07:15:03.022Z,1013.61
2018-04-26T07:20:03.583Z,1013.65
2018-04-26T07:25:03.142Z,1013.72
2018-04-26T07:30:03.613Z,1013.73
2018-04-26T07:35:03.160Z,1013.73
2018-04-26T07:40:02.839Z,1013.7
2018-04-26T07:45:03.462Z,1013.75
2018-04-26T07:50:03.154Z,1013.83
2018-04-26T07:55:02.739Z,1013.93
2018-04-26T08:00:03.246Z,1013.86
2018-04-26T08:05:02.775Z,1013.83
2018-04-26T08:10:03.385Z,1013.88
2018-04-26T08:15:02.889Z,1013.9
2018-04-26T08:20:03.469Z,1013.98
2018-04-26T08:25:03.463Z,1014.09
2018-04-26T08:30:03.128Z,1014.03
2018-04-26T08:35:03.669Z,1014.22
2018-04-26T08:40:03.282Z,1014.39
2018-04-26T08:45:02.879Z,1014.26
2018-04-26T08:50:03.484Z,1014.42
2018-04-26T08:55:03.074Z,1014.43
2018-04-26T09:00:03.797Z,1014.41
2018-04-26T09:05:03.468Z,1014.42
2018-04-26T09:10:03.098Z,1014.37
2018-04-26T09:15:03.643Z,1014.49
2018-04-26T09:20:03.185Z,1014.44
2018-04-26T09:25:02.851Z,1014.47
2018-04-26T09:30:03.814Z,1014.69
2018-04-26T09:35:03.578Z,1014.63
2018-04-26T09:40:03.193Z,1014.66
2018-04-26T09:45:02.770Z,1014.64
2018-04-26T09:50:03.376Z,1014.6
2018-04-26T09:55:02.918Z,1014.57
2018-04-26T10:00:03.440Z,1014.48
2018-04-26T10:05:03.082Z,1014.62
2018-04-26T10:10:02.715Z,1014.56
2018-04-26T10:15:03.445Z,1014.58
2018-04-26T10:20:03.031Z,1014.57
2018-04-26T10:25:03.611Z,1014.59
2018-04-26T10:30:03.462Z,1014.66
2018-04-26T10:35:03.089Z,1014.68
2018-04-26T10:40:03.681Z,1014.52
2018-04-26T10:45:03.168Z,1014.57
2018-04-26T10:50:02.660Z,1014.74
2018-04-26T10:55:03.454Z,1014.6
2018-04-26T11:00:03.330Z,1014.63
2018-04-26T11:05:03.001Z,1014.66
2018-04-26T11:10:03.523Z,1014.84
2018-04-26T11:15:03.271Z,1014.89
2018-04-26T11:20:02.807Z,1014.8
2018-04-26T11:25:03.302Z,1014.83
2018-04-26T11:30:02.827Z,1014.86
2018-04-26T11:35:03.320Z,1014.94
2018-04-26T11:40:02.953Z,1015.16
2018-04-26T11:45:03.529Z,1015.16
2018-04-26T11:50:03.031Z,1015.31
2018-04-26T11:55:03.614Z,1015.23
2018-04-26T12:00:03.184Z,1015.14
2018-04-26T12:05:02.857Z,1015.21
2018-04-26T12:10:03.598Z,1015.12
2018-04-26T12:15:03.317Z,1014.92
2018-04-26T12:20:02.901Z,1014.87
2018-04-26T12:25:03.421Z,1014.91
2018-04-26T12:30:02.931Z,1014.73
2018-04-26T12:35:03.852Z,1014.91
2018-04-26T12:40:03.463Z,1015.04
2018-04-26T12:45:03.253Z,1014.92
2018-04-26T12:50:02.757Z,1014.94
2018-04-26T12:55:03.356Z,1014.8
2018-04-26T13:00:03.003Z,1014.88
2018-04-26T13:05:04.086Z,1014.86
2018-04-26T13:10:02.870Z,1014.81
2018-04-26T13:15:03.381Z,1014.86
2018-04-26T13:20:02.958Z,1014.9
2018-04-26T13:25:03.492Z,1015.05
2018-04-26T13:30:03.034Z,1014.95
2018-04-26T13:35:03.680Z,1014.92
2018-04-26T13:40:03.456Z,1014.96
2018-04-26T13:45:03.014Z,1015.02
2018-04-26T13:50:03.639Z,1015.08
2018-04-26T13:55:03.199Z,1014.9
2018-04-26T14:00:02.759Z,1014.92
2018-04-26T14:05:03.337Z,1014.89
2018-04-26T14:10:02.937Z,1014.92
2018-04-26T14:15:03.523Z,1014.95
2018-04-26T14:20:03.198Z,1014.85
2018-04-26T14:25:02.783Z,1014.95
2018-04-26T14:30:03.348Z,1014.88
2018-04-26T14:35:02.964Z,1014.95
2018-04-26T14:40:03.655Z,1014.87
2018-04-26T14:45:03.295Z,1014.86
2018-04-26T14:50:02.911Z,1014.79
2018-04-26T14:55:03.559Z,1014.77
2018-04-26T15:00:03.291Z,1014.84
2018-04-26T15:05:02.906Z,1014.76
2018-04-26T15:10:03.574Z,1014.84
2018-04-26T15:15:03.257Z,1014.77
2018-04-26T15:20:02.816Z,1014.79
2018-04-26T15:25:03.474Z,1014.75
2018-04-26T15:30:03.098Z,1014.75
2018-04-26T15:35:03.663Z,1014.82
2018-04-26T15:40:03.265Z,1014.96
2018-04-26T15:45:02.890Z,1014.79
2018-04-26T15:50:03.839Z,1014.85
2018-04-26T15:55:03.510Z,1014.91
2018-04-26T16:00:03.257Z,1014.94
2018-04-26T16:05:02.840Z,1014.92
2018-04-26T16:10:03.468Z,1014.89
2018-04-26T16:15:03.085Z,1015
2018-04-26T16:20:02.973Z,1014.94
2018-04-26T16:25:03.590Z,1014.78
2018-04-26T16:30:03.180Z,1015.05
2018-04-26T16:35:02.912Z,1015.09
2018-04-26T16:40:03.641Z,1014.98
2018-04-26T16:45:03.228Z,1015.07
2018-04-26T16:50:02.864Z,1014.99
2018-04-26T16:55:03.384Z,1015.04
2018-04-26T17:00:02.971Z,1015.01
2018-04-26T17:05:03.564Z,1015.04
2018-04-26T17:10:03.123Z,1015.06
2018-04-26T17:15:03.680Z,1015.11
2018-04-26T17:20:03.218Z,1015.07
2018-04-26T17:25:02.824Z,1015.01
2018-04-26T17:30:03.762Z,1015.11
2018-04-26T17:35:03.304Z,1015.11
2018-04-26T17:40:02.961Z,1015.15
2018-04-26T17:45:03.540Z,1015.24
2018-04-26T17:50:03.156Z,1015.27
2018-04-26T17:55:02.802Z,1015.26
2018-04-26T18:00:03.366Z,1015.21
2018-04-26T18:05:02.933Z,1015.21
2018-04-26T18:10:03.502Z,1015.24
2018-04-26T18:15:03.102Z,1015.29
2018-04-26T18:20:09.220Z,1015.34
2018-04-26T18:25:02.760Z,1015.34
2018-04-26T18:30:03.471Z,1015.38
2018-04-26T18:35:03.101Z,1015.47
2018-04-26T18:40:02.764Z,1015.58
2018-04-26T18:45:03.393Z,1015.67
2018-04-26T18:50:02.917Z,1015.72
2018-04-26T18:55:03.660Z,1015.68
2018-04-26T19:00:03.236Z,1015.74
2018-04-26T19:05:02.753Z,1015.79
2018-04-26T19:10:03.357Z,1015.71
2018-04-26T19:15:02.903Z,1015.84
2018-04-26T19:20:03.476Z,1015.89
2018-04-26T19:25:03.048Z,1015.96
2018-04-26T19:30:03.573Z,1015.94
2018-04-26T19:35:03.104Z,1015.9
2018-04-26T19:40:03.815Z,1015.9
2018-04-26T19:45:03.327Z,1015.88
2018-04-26T19:50:02.857Z,1015.94
2018-04-26T19:55:03.410Z,1015.97
2018-04-26T20:00:03.213Z,1015.95
2018-04-26T20:05:02.842Z,1015.95
2018-04-26T20:10:03.453Z,1015.98
2018-04-26T20:15:03.013Z,1016
2018-04-26T20:20:03.598Z,1015.93
2018-04-26T20:25:03.189Z,1015.86
2018-04-26T20:30:03.269Z,1015.94
2018-04-26T20:35:02.861Z,1015.92
2018-04-26T20:40:03.528Z,1015.86
2018-04-26T20:45:03.283Z,1015.89
2018-04-26T20:50:02.954Z,1015.87
2018-04-26T20:55:03.521Z,1015.83
2018-04-26T21:00:03.054Z,1015.8
2018-04-26T21:05:03.796Z,1015.83
2018-04-26T21:10:03.663Z,1015.91
2018-04-26T21:15:03.462Z,1015.92
2018-04-26T21:20:03.327Z,1015.8
2018-04-26T21:25:03.189Z,1015.81
2018-04-26T21:30:02.883Z,1015.85
2018-04-26T21:35:03.773Z,1015.77
2018-04-26T21:40:03.730Z,1015.79
2018-04-26T21:45:03.570Z,1015.75
2018-04-26T21:50:03.305Z,1015.74
2018-04-26T21:55:03.076Z,1015.78
2018-04-26T22:05:03.424Z,1015.76
2018-04-26T22:10:03.163Z,1015.72
2018-04-26T22:15:02.853Z,1015.69
2018-04-26T22:20:03.601Z,1015.76
2018-04-26T22:25:03.349Z,1015.72
2018-04-26T22:30:03.028Z,1015.74
2018-04-26T22:35:03.814Z,1015.79
2018-04-26T22:40:03.625Z,1015.73
2018-04-26T22:45:03.325Z,1015.67
2018-04-26T22:50:03.023Z,1015.67
2018-04-26T22:55:02.866Z,1015.69
2018-04-26T23:00:03.506Z,1015.69
2018-04-26T23:05:03.523Z,1015.69
2018-04-26T23:10:03.315Z,1015.69
2018-04-26T23:15:03.067Z,1015.69
2018-04-26T23:20:02.968Z,1015.69
2018-04-26T23:25:03.688Z,1015.69
2018-04-26T23:30:03.439Z,1015.69
2018-04-26T23:35:03.137Z,1015.69
2018-04-26T23:40:02.853Z,1015.69
2018-04-26T23:45:03.523Z,1015.69
2018-04-26T23:50:03.196Z,1015.69
2018-04-26T23:55:02.924Z,1015.69
